METAR Data
IDs: Format: Raw Decoded Include TAF

Data at: 0314 UTC 25 Feb 2021

EGNT 250250Z AUTO 24011KT 9999 NCD 07/04 Q1016